ハボローネ の空港の天気 - METARとTAF

セレツェカーマ国際空港 ( FBSK / GBE ) - ボツワナ ハボローネ
飛行場実況気象(Metar)
観測時間05/27 01:00 CAT (05/26 23:00 UTC)
風向・風速西北西 1m/s
視程10km以上
天気現象
なし
気温-
湿度-
気圧1024hPa
METARFBSK 262300Z 30001KT CAVOK 09/// Q1024 NOSIG
過去の天気等 Google飛行場航空写真 Wunderground天気予報

過去48時間のMETAR

飛行場予報(TAF)
発表時間: 5/26 18:00 CAT (5/26 16:00 UTC)
予報対象時間: 26日20時 CAT ~ 28日2時 CAT
風向・風速南 3m/s
視程10km以上
なし
27日8時 CAT ~ 27日10時 CAT に徐々に
風向・風速北北東 3m/s
FBSK 261600Z 2618/2724 18005KT CAVOK
BECMG 2706/2708 03005KT